createdAt,value
2023-05-25T00:00:23.358Z,23.25
2023-05-25T00:01:23.396Z,23.23
2023-05-25T00:02:23.504Z,23.24
2023-05-25T00:03:23.489Z,23.24
2023-05-25T00:04:23.483Z,23.24
2023-05-25T00:05:23.448Z,23.24
2023-05-25T00:06:23.494Z,23.24
2023-05-25T00:07:23.497Z,23.24
2023-05-25T00:08:23.547Z,23.23
2023-05-25T00:09:23.515Z,23.24
2023-05-25T00:10:24.325Z,23.23
2023-05-25T00:11:23.584Z,23.24
2023-05-25T00:12:23.600Z,23.24
2023-05-25T00:13:23.587Z,23.24
2023-05-25T00:14:23.631Z,23.24
2023-05-25T00:15:23.629Z,23.24
2023-05-25T00:16:23.704Z,23.24
2023-05-25T00:17:23.732Z,23.23
2023-05-25T00:18:23.688Z,23.23
2023-05-25T00:19:23.716Z,23.24
2023-05-25T00:20:23.760Z,23.24
2023-05-25T00:21:23.749Z,23.24
2023-05-25T00:22:23.740Z,23.23
2023-05-25T00:23:23.794Z,23.23
2023-05-25T00:24:23.803Z,23.23
2023-05-25T00:25:23.824Z,23.23
2023-05-25T00:26:23.818Z,23.23
2023-05-25T00:27:23.831Z,23.24
2023-05-25T00:28:23.863Z,23.23
2023-05-25T00:29:23.912Z,23.23
2023-05-25T00:30:23.896Z,23.22
2023-05-25T00:31:24.023Z,23.23
2023-05-25T00:32:23.942Z,23.23
2023-05-25T00:33:23.959Z,23.23
2023-05-25T00:34:24.018Z,23.24
2023-05-25T00:35:24.017Z,23.23
2023-05-25T00:36:24.013Z,23.23
2023-05-25T00:37:24.021Z,23.23
2023-05-25T00:38:24.042Z,23.22
2023-05-25T00:39:24.037Z,23.23
2023-05-25T00:40:24.084Z,23.22
2023-05-25T00:41:24.109Z,23.22
2023-05-25T00:42:24.128Z,23.22
2023-05-25T00:43:24.146Z,23.23
2023-05-25T00:44:24.157Z,23.22
2023-05-25T00:45:24.180Z,23.22
2023-05-25T00:46:24.224Z,23.22
2023-05-25T00:47:24.240Z,23.22
2023-05-25T00:48:24.221Z,23.22
2023-05-25T00:49:24.254Z,23.22
2023-05-25T00:50:24.236Z,23.22
2023-05-25T00:51:24.286Z,23.22
2023-05-25T00:52:24.257Z,23.22
2023-05-25T00:53:24.309Z,23.22
2023-05-25T00:54:24.350Z,23.22
2023-05-25T00:55:24.353Z,23.22
2023-05-25T00:56:24.368Z,23.22
2023-05-25T00:57:24.384Z,23.22
2023-05-25T00:58:24.370Z,23.22
2023-05-25T00:59:24.428Z,23.21
2023-05-25T01:00:24.459Z,23.21
2023-05-25T01:01:24.513Z,23.21
2023-05-25T01:02:24.543Z,23.21
2023-05-25T01:03:24.611Z,23.21
2023-05-25T01:04:24.510Z,23.21
2023-05-25T01:05:24.565Z,23.22
2023-05-25T01:06:24.578Z,23.21
2023-05-25T01:07:24.570Z,23.21
2023-05-25T01:08:24.607Z,23.20
2023-05-25T01:09:24.578Z,23.21
2023-05-25T01:10:24.621Z,23.21
2023-05-25T01:11:24.648Z,23.21
2023-05-25T01:12:24.666Z,23.22
2023-05-25T01:13:24.702Z,23.22
2023-05-25T01:14:24.691Z,23.21
2023-05-25T01:15:24.694Z,23.21
2023-05-25T01:16:24.752Z,23.21
2023-05-25T01:17:24.795Z,23.22
2023-05-25T01:18:24.788Z,23.22
2023-05-25T01:19:24.786Z,23.21
2023-05-25T01:20:24.829Z,23.21
2023-05-25T01:21:24.826Z,23.21
2023-05-25T01:22:24.838Z,23.21
2023-05-25T01:23:24.889Z,23.20
2023-05-25T01:24:24.880Z,23.20
2023-05-25T01:25:24.925Z,23.20
2023-05-25T01:26:24.908Z,23.20
2023-05-25T01:27:24.963Z,23.20
2023-05-25T01:28:25.008Z,23.20
2023-05-25T01:29:24.997Z,23.21
2023-05-25T01:30:24.997Z,23.20
2023-05-25T01:31:25.101Z,23.20
2023-05-25T01:32:25.074Z,23.21
2023-05-25T01:33:25.071Z,23.20
2023-05-25T01:34:25.104Z,23.20
2023-05-25T01:35:25.151Z,23.20
2023-05-25T01:36:25.135Z,23.20
2023-05-25T01:37:25.174Z,23.20
2023-05-25T01:38:25.230Z,23.20
2023-05-25T01:39:25.258Z,23.19
2023-05-25T01:40:25.224Z,23.19
2023-05-25T01:41:25.271Z,23.20
2023-05-25T01:42:25.287Z,23.20
2023-05-25T01:43:25.332Z,23.20
2023-05-25T01:44:25.351Z,23.19
2023-05-25T01:45:25.365Z,23.20
2023-05-25T01:46:25.410Z,23.20
2023-05-25T01:47:25.406Z,23.20
2023-05-25T01:48:25.410Z,23.20
2023-05-25T01:49:25.426Z,23.20
2023-05-25T01:50:25.432Z,23.20
2023-05-25T01:51:25.489Z,23.19
2023-05-25T01:52:25.530Z,23.19
2023-05-25T01:53:25.493Z,23.19
2023-05-25T01:54:25.516Z,23.19
2023-05-25T01:55:25.526Z,23.19
2023-05-25T01:56:25.544Z,23.19
2023-05-25T01:57:25.589Z,23.19
2023-05-25T01:58:25.622Z,23.19
2023-05-25T01:59:25.636Z,23.19
2023-05-25T02:00:25.630Z,23.19
2023-05-25T02:01:25.696Z,23.19
2023-05-25T02:02:25.728Z,23.19
2023-05-25T02:03:25.688Z,23.19
2023-05-25T02:04:25.784Z,23.19
2023-05-25T02:05:25.764Z,23.19
2023-05-25T02:06:25.763Z,23.18
2023-05-25T02:07:25.804Z,23.19
2023-05-25T02:08:25.785Z,23.19
2023-05-25T02:09:25.839Z,23.18
2023-05-25T02:10:25.826Z,23.18
2023-05-25T02:11:25.848Z,23.18
2023-05-25T02:12:25.857Z,23.18
2023-05-25T02:13:25.927Z,23.18
2023-05-25T02:14:25.911Z,23.18
2023-05-25T02:15:25.952Z,23.19
2023-05-25T02:16:25.977Z,23.19
2023-05-25T02:17:26.022Z,23.18
2023-05-25T02:18:26.102Z,23.19
2023-05-25T02:19:26.041Z,23.18
2023-05-25T02:20:26.073Z,23.18
2023-05-25T02:21:26.022Z,23.18
2023-05-25T02:22:26.100Z,23.18
2023-05-25T02:23:26.078Z,23.18
2023-05-25T02:24:26.108Z,23.18
2023-05-25T02:25:26.105Z,23.19
2023-05-25T02:26:26.144Z,23.18
2023-05-25T02:27:26.166Z,23.18
2023-05-25T02:28:26.212Z,23.17
2023-05-25T02:29:26.191Z,23.18
2023-05-25T02:30:26.214Z,23.18
2023-05-25T02:31:26.312Z,23.18
2023-05-25T02:32:26.236Z,23.18
2023-05-25T02:33:26.294Z,23.18
2023-05-25T02:34:26.302Z,23.18
2023-05-25T02:35:26.320Z,23.18
2023-05-25T02:36:26.323Z,23.18
2023-05-25T02:37:26.313Z,23.18
2023-05-25T02:38:26.370Z,23.17
2023-05-25T02:39:26.411Z,23.17
2023-05-25T02:40:26.430Z,23.17
2023-05-25T02:41:26.427Z,23.18
2023-05-25T02:42:26.454Z,23.17
2023-05-25T02:43:26.460Z,23.17
2023-05-25T02:44:26.502Z,23.17
2023-05-25T02:45:26.507Z,23.17
2023-05-25T02:46:26.581Z,23.17
2023-05-25T02:47:26.584Z,23.16
2023-05-25T02:48:26.766Z,23.17
2023-05-25T02:49:26.604Z,23.18
2023-05-25T02:50:26.595Z,23.17
2023-05-25T02:51:26.633Z,23.16
2023-05-25T02:52:26.659Z,23.17
2023-05-25T02:53:26.758Z,23.16
2023-05-25T02:54:26.718Z,23.17
2023-05-25T02:55:26.723Z,23.16
2023-05-25T02:56:26.783Z,23.16
2023-05-25T02:57:26.753Z,23.16
2023-05-25T02:58:26.817Z,23.17
2023-05-25T02:59:26.840Z,23.16
2023-05-25T03:00:26.820Z,23.16
2023-05-25T03:01:26.992Z,23.16
2023-05-25T03:02:26.876Z,23.16
2023-05-25T03:03:26.978Z,23.16
2023-05-25T03:04:26.920Z,23.16
2023-05-25T03:05:26.938Z,23.16
2023-05-25T03:06:27.004Z,23.16
2023-05-25T03:07:27.010Z,23.17
2023-05-25T03:08:27.019Z,23.16
2023-05-25T03:09:27.046Z,23.16
2023-05-25T03:10:27.078Z,23.16
2023-05-25T03:11:27.117Z,23.16
2023-05-25T03:12:27.104Z,23.16
2023-05-25T03:13:27.126Z,23.16
2023-05-25T03:14:27.121Z,23.16
2023-05-25T03:15:27.112Z,23.16
2023-05-25T03:16:27.193Z,23.16
2023-05-25T03:17:27.178Z,23.16
2023-05-25T03:18:27.191Z,23.15
2023-05-25T03:19:27.230Z,23.16
2023-05-25T03:20:27.250Z,23.15
2023-05-25T03:21:27.235Z,23.15
2023-05-25T03:22:27.265Z,23.16
2023-05-25T03:23:27.283Z,23.16
2023-05-25T03:24:27.306Z,23.15
2023-05-25T03:25:27.368Z,23.15
2023-05-25T03:26:27.366Z,23.15
2023-05-25T03:27:27.387Z,23.16
2023-05-25T03:28:27.427Z,23.15
2023-05-25T03:29:27.410Z,23.15
2023-05-25T03:30:27.461Z,23.15
2023-05-25T03:31:27.489Z,23.15
2023-05-25T03:32:27.524Z,23.15
2023-05-25T03:33:27.543Z,23.15
2023-05-25T03:34:27.551Z,23.15
2023-05-25T03:35:27.557Z,23.16
2023-05-25T03:36:27.615Z,23.16
2023-05-25T03:37:27.641Z,23.15
2023-05-25T03:38:27.673Z,23.16
2023-05-25T03:39:27.682Z,23.15
2023-05-25T03:40:27.711Z,23.15
2023-05-25T03:41:27.747Z,23.16
2023-05-25T03:42:27.753Z,23.16
2023-05-25T03:43:27.783Z,23.16
2023-05-25T03:44:27.807Z,23.16
2023-05-25T03:45:27.811Z,23.16
2023-05-25T03:46:27.895Z,23.15
2023-05-25T03:47:27.886Z,23.16
2023-05-25T03:48:27.890Z,23.17
2023-05-25T03:49:28.780Z,23.16
2023-05-25T03:50:27.939Z,23.16
2023-05-25T03:51:27.985Z,23.16
2023-05-25T03:52:27.990Z,23.16
2023-05-25T03:53:27.968Z,23.16
2023-05-25T03:54:27.994Z,23.16
2023-05-25T03:55:28.004Z,23.17
2023-05-25T03:56:28.025Z,23.17
2023-05-25T03:57:28.040Z,23.17
2023-05-25T03:58:28.085Z,23.17
2023-05-25T03:59:28.105Z,23.17
2023-05-25T04:00:28.113Z,23.17
2023-05-25T04:01:28.144Z,23.17
2023-05-25T04:02:28.291Z,23.16
2023-05-25T04:03:28.415Z,23.17
2023-05-25T04:04:28.303Z,23.17
2023-05-25T04:05:28.265Z,23.16
2023-05-25T04:06:28.283Z,23.17
2023-05-25T04:07:28.288Z,23.17
2023-05-25T04:08:28.318Z,23.17
2023-05-25T04:09:28.351Z,23.18
2023-05-25T04:10:28.369Z,23.17
2023-05-25T04:11:28.408Z,23.18
2023-05-25T04:12:28.413Z,23.18
2023-05-25T04:13:28.447Z,23.18
2023-05-25T04:14:28.479Z,23.18
2023-05-25T04:15:28.495Z,23.18
2023-05-25T04:16:28.558Z,23.18
2023-05-25T04:17:28.555Z,23.18
2023-05-25T04:18:28.529Z,23.18
2023-05-25T04:19:28.559Z,23.18
2023-05-25T04:20:28.636Z,23.17
2023-05-25T04:21:28.601Z,23.19
2023-05-25T04:22:28.650Z,23.18
2023-05-25T04:23:28.668Z,23.19
2023-05-25T04:24:28.681Z,23.19
2023-05-25T04:25:43.203Z,23.19
2023-05-25T04:26:29.685Z,23.19
2023-05-25T04:27:28.682Z,23.19
2023-05-25T04:28:28.650Z,23.19
2023-05-25T04:29:28.665Z,23.19
2023-05-25T04:30:28.680Z,23.19
2023-05-25T04:31:28.697Z,23.19
2023-05-25T04:32:28.670Z,23.20
2023-05-25T04:33:28.636Z,23.20
2023-05-25T04:34:28.620Z,23.19
2023-05-25T04:35:28.613Z,23.20
2023-05-25T04:36:28.613Z,23.20
2023-05-25T04:37:28.594Z,23.21
2023-05-25T04:38:28.607Z,23.21
2023-05-25T04:39:28.575Z,23.21
2023-05-25T04:40:28.603Z,23.21
2023-05-25T04:41:28.606Z,23.21
2023-05-25T04:42:28.584Z,23.21
2023-05-25T04:43:28.571Z,23.21
2023-05-25T04:44:28.528Z,23.21
2023-05-25T04:45:28.536Z,23.22
2023-05-25T04:46:28.666Z,23.22
2023-05-25T04:47:28.595Z,23.22
2023-05-25T04:48:28.619Z,23.22
2023-05-25T04:49:28.623Z,23.22
2023-05-25T04:50:28.627Z,23.23
2023-05-25T04:51:28.643Z,23.23
2023-05-25T04:52:28.683Z,23.23
2023-05-25T04:53:28.682Z,23.24
2023-05-25T04:54:28.712Z,23.24
2023-05-25T04:55:28.715Z,23.23
2023-05-25T04:56:28.732Z,23.23
2023-05-25T04:57:28.769Z,23.24
2023-05-25T04:58:28.785Z,23.24
2023-05-25T04:59:28.796Z,23.24
2023-05-25T05:00:28.816Z,23.24
2023-05-25T05:01:28.853Z,23.25
2023-05-25T05:02:28.868Z,23.25
2023-05-25T05:03:28.936Z,23.25
2023-05-25T05:04:28.894Z,23.26
2023-05-25T05:05:28.879Z,23.26
2023-05-25T05:06:28.874Z,23.26
2023-05-25T05:07:28.897Z,23.27
2023-05-25T05:08:28.923Z,23.28
2023-05-25T05:09:28.955Z,23.28
2023-05-25T05:10:28.948Z,23.28
2023-05-25T05:11:28.959Z,23.29
2023-05-25T05:12:29.007Z,23.29
2023-05-25T05:13:29.026Z,23.30
2023-05-25T05:14:29.035Z,23.30
2023-05-25T05:15:28.999Z,23.31
2023-05-25T05:16:29.126Z,23.31
2023-05-25T05:17:29.023Z,23.31
2023-05-25T05:18:29.144Z,23.31
2023-05-25T05:19:29.052Z,23.32
2023-05-25T05:20:29.081Z,23.32
2023-05-25T05:21:29.069Z,23.33
2023-05-25T05:22:29.094Z,23.33
2023-05-25T05:23:29.087Z,23.33
2023-05-25T05:24:29.088Z,23.33
2023-05-25T05:25:29.135Z,23.34
2023-05-25T05:26:29.272Z,23.33
2023-05-25T05:27:29.126Z,23.33
2023-05-25T05:28:29.156Z,23.32
2023-05-25T05:29:29.207Z,23.32
2023-05-25T05:30:29.193Z,23.32
2023-05-25T05:31:29.310Z,23.33
2023-05-25T05:32:29.238Z,23.32
2023-05-25T05:33:29.308Z,23.32
2023-05-25T05:34:29.244Z,23.33
2023-05-25T05:35:29.255Z,23.34
2023-05-25T05:36:29.259Z,23.35
2023-05-25T05:37:29.286Z,23.35
2023-05-25T05:38:29.320Z,23.36
2023-05-25T05:39:29.314Z,23.36
2023-05-25T05:40:29.358Z,23.37
2023-05-25T05:41:29.333Z,23.39
2023-05-25T05:42:29.366Z,23.38
2023-05-25T05:43:29.380Z,23.38
2023-05-25T05:44:29.695Z,23.39
2023-05-25T05:45:29.364Z,23.39
2023-05-25T05:46:29.399Z,23.39
2023-05-25T05:47:29.392Z,23.39
2023-05-25T05:48:29.414Z,23.40
2023-05-25T05:49:29.469Z,23.39
2023-05-25T05:50:29.418Z,23.39
2023-05-25T05:51:29.423Z,23.39
2023-05-25T05:52:29.525Z,23.39
2023-05-25T05:53:29.538Z,23.39
2023-05-25T05:54:29.611Z,23.38
2023-05-25T05:55:29.492Z,23.37
2023-05-25T05:56:29.474Z,23.38
2023-05-25T05:57:29.479Z,23.38
2023-05-25T05:58:29.528Z,23.38
2023-05-25T05:59:29.545Z,23.38
2023-05-25T06:00:29.599Z,23.37
2023-05-25T06:01:29.572Z,23.37
2023-05-25T06:02:29.613Z,23.37
2023-05-25T06:03:29.590Z,23.38
2023-05-25T06:04:29.610Z,23.37
2023-05-25T06:05:29.686Z,23.38
2023-05-25T06:06:29.575Z,23.37
2023-05-25T06:07:29.605Z,23.37
2023-05-25T06:08:29.632Z,23.38
2023-05-25T06:09:29.677Z,23.38
2023-05-25T06:10:29.661Z,23.38
2023-05-25T06:11:29.650Z,23.39
2023-05-25T06:12:29.677Z,23.39
2023-05-25T06:13:29.686Z,23.38
2023-05-25T06:14:29.676Z,23.38
2023-05-25T06:15:29.694Z,23.39
2023-05-25T06:16:29.722Z,23.39
2023-05-25T06:17:29.768Z,23.39
2023-05-25T06:18:29.737Z,23.40
2023-05-25T06:19:29.724Z,23.40
2023-05-25T06:20:29.865Z,23.40
2023-05-25T06:21:29.764Z,23.40
2023-05-25T06:22:29.746Z,23.41
2023-05-25T06:23:29.767Z,23.40
2023-05-25T06:24:29.805Z,23.40
2023-05-25T06:25:29.773Z,23.40
2023-05-25T06:26:29.818Z,23.41
2023-05-25T06:27:29.823Z,23.42
2023-05-25T06:28:29.850Z,23.42
2023-05-25T06:29:29.853Z,23.42
2023-05-25T06:30:29.875Z,23.43
2023-05-25T06:31:29.912Z,23.43
2023-05-25T06:32:29.915Z,23.44
2023-05-25T06:33:29.926Z,23.44
2023-05-25T06:34:29.913Z,23.44
2023-05-25T06:35:29.931Z,23.44
2023-05-25T06:36:29.945Z,23.43
2023-05-25T06:37:29.978Z,23.44
2023-05-25T06:38:29.975Z,23.44
2023-05-25T06:39:29.966Z,23.43
2023-05-25T06:40:30.028Z,23.43
2023-05-25T06:41:29.963Z,23.44
2023-05-25T06:42:29.999Z,23.43
2023-05-25T06:43:30.004Z,23.44
2023-05-25T06:44:29.994Z,23.44
2023-05-25T06:45:30.045Z,23.43
2023-05-25T06:46:30.015Z,23.43
2023-05-25T06:47:31.224Z,23.43
2023-05-25T06:48:30.043Z,23.44
2023-05-25T06:49:30.109Z,23.45
2023-05-25T06:50:30.024Z,23.45
2023-05-25T06:51:30.044Z,23.47
2023-05-25T06:52:30.076Z,23.46
2023-05-25T06:53:30.061Z,23.47
2023-05-25T06:54:30.094Z,23.46
2023-05-25T06:55:30.068Z,23.47
2023-05-25T06:56:30.096Z,23.46
2023-05-25T06:57:30.120Z,23.47
2023-05-25T06:58:30.148Z,23.47
2023-05-25T06:59:30.113Z,23.46
2023-05-25T07:00:30.118Z,23.46
2023-05-25T07:01:30.187Z,23.46
2023-05-25T07:02:30.153Z,23.46
2023-05-25T07:03:30.148Z,23.47
2023-05-25T07:04:30.211Z,23.47
2023-05-25T07:05:30.196Z,23.47
2023-05-25T07:06:30.167Z,23.48
2023-05-25T07:07:30.176Z,23.48
2023-05-25T07:08:30.322Z,23.47
2023-05-25T07:09:30.233Z,23.47
2023-05-25T07:10:30.253Z,23.46
2023-05-25T07:11:30.266Z,23.46
2023-05-25T07:12:30.281Z,23.46
2023-05-25T07:13:30.298Z,23.46
2023-05-25T07:14:30.300Z,23.46
2023-05-25T07:15:30.298Z,23.46
2023-05-25T07:16:30.411Z,23.46
2023-05-25T07:17:30.309Z,23.46
2023-05-25T07:18:30.304Z,23.46
2023-05-25T07:19:30.292Z,23.45
2023-05-25T07:20:30.389Z,23.46
2023-05-25T07:21:30.346Z,23.45
2023-05-25T07:22:30.309Z,23.45
2023-05-25T07:23:30.362Z,23.45
2023-05-25T07:24:30.386Z,23.44
2023-05-25T07:25:30.427Z,23.44
2023-05-25T07:26:30.394Z,23.45
2023-05-25T07:27:30.406Z,23.45
2023-05-25T07:28:30.434Z,23.44
2023-05-25T07:29:30.430Z,23.44
2023-05-25T07:30:30.414Z,23.44
2023-05-25T07:31:30.508Z,23.45
2023-05-25T07:32:30.453Z,23.46
2023-05-25T07:33:30.440Z,23.46
2023-05-25T07:34:30.485Z,23.45
2023-05-25T07:35:30.466Z,23.45
2023-05-25T07:36:30.482Z,23.46
2023-05-25T07:37:30.525Z,23.46
2023-05-25T07:38:30.520Z,23.46
2023-05-25T07:39:30.538Z,23.46
2023-05-25T07:40:30.541Z,23.46
2023-05-25T07:41:30.538Z,23.46
2023-05-25T07:42:30.551Z,23.47
2023-05-25T07:43:30.594Z,23.47
2023-05-25T07:44:30.584Z,23.46
2023-05-25T07:45:30.673Z,23.46
2023-05-25T07:46:30.628Z,23.45
2023-05-25T07:47:30.606Z,23.45
2023-05-25T07:48:30.627Z,23.44
2023-05-25T07:49:30.647Z,23.45
2023-05-25T07:50:31.938Z,23.44
2023-05-25T07:51:30.676Z,23.44
2023-05-25T07:52:30.667Z,23.44
2023-05-25T07:53:30.655Z,23.44
2023-05-25T07:54:30.656Z,23.44
2023-05-25T07:55:30.652Z,23.44
2023-05-25T07:56:30.675Z,23.45
2023-05-25T07:57:30.716Z,23.46
2023-05-25T07:58:30.717Z,23.45
2023-05-25T07:59:30.731Z,23.46
2023-05-25T08:00:30.775Z,23.46
2023-05-25T08:01:30.779Z,23.47
2023-05-25T08:02:30.842Z,23.47
2023-05-25T08:03:47.367Z,23.46
2023-05-25T08:04:31.956Z,23.46
2023-05-25T08:05:30.799Z,23.46
2023-05-25T08:06:30.777Z,23.46
2023-05-25T08:07:30.810Z,23.47
2023-05-25T08:08:30.779Z,23.47
2023-05-25T08:09:30.825Z,23.47
2023-05-25T08:10:30.763Z,23.47
2023-05-25T08:11:30.796Z,23.47
2023-05-25T08:12:46.736Z,23.47
2023-05-25T08:13:31.744Z,23.47
2023-05-25T08:14:30.738Z,23.47
2023-05-25T08:15:30.733Z,23.47
2023-05-25T08:16:30.737Z,23.48
2023-05-25T08:17:30.768Z,23.48
2023-05-25T08:18:30.736Z,23.47
2023-05-25T08:19:30.700Z,23.48
2023-05-25T08:20:30.697Z,23.47
2023-05-25T08:21:31.364Z,23.48
2023-05-25T08:22:30.677Z,23.48
2023-05-25T08:23:30.637Z,23.48
2023-05-25T08:24:30.711Z,23.49
2023-05-25T08:25:30.633Z,23.48
2023-05-25T08:26:45.354Z,23.48
2023-05-25T08:27:33.523Z,23.48
2023-05-25T08:28:30.609Z,23.48
2023-05-25T08:29:30.618Z,23.49
2023-05-25T08:30:30.627Z,23.49
2023-05-25T08:31:30.776Z,23.49
2023-05-25T08:32:30.623Z,23.49
2023-05-25T08:33:30.601Z,23.49
2023-05-25T08:34:30.569Z,23.49
2023-05-25T08:35:30.600Z,23.49
2023-05-25T08:36:30.577Z,23.49
2023-05-25T08:37:30.593Z,23.48
2023-05-25T08:38:30.543Z,23.50
2023-05-25T08:39:30.892Z,23.43
2023-05-25T08:40:30.575Z,23.42
2023-05-25T08:41:30.548Z,23.42
2023-05-25T08:42:30.550Z,23.43
2023-05-25T08:43:30.506Z,23.41
2023-05-25T08:44:30.501Z,23.42
2023-05-25T08:45:36.071Z,23.43
2023-05-25T08:46:31.556Z,23.45
2023-05-25T08:47:30.521Z,23.47
2023-05-25T08:48:40.259Z,23.45
2023-05-25T08:49:31.540Z,23.46
2023-05-25T08:50:30.564Z,23.47
2023-05-25T08:51:30.484Z,23.49
2023-05-25T08:52:30.488Z,23.52
2023-05-25T08:53:30.455Z,23.53
2023-05-25T08:54:30.420Z,23.54
2023-05-25T08:55:30.453Z,23.56
2023-05-25T08:56:30.456Z,23.56
2023-05-25T08:57:30.429Z,23.54
2023-05-25T08:58:30.411Z,23.47
2023-05-25T08:59:30.423Z,23.39
2023-05-25T09:00:30.409Z,23.31
2023-05-25T09:01:30.398Z,23.24
2023-05-25T09:02:30.432Z,23.16
2023-05-25T09:03:30.534Z,23.11
2023-05-25T09:04:30.407Z,23.08
2023-05-25T09:05:30.410Z,23.06
2023-05-25T09:06:30.485Z,23.02
2023-05-25T09:07:30.514Z,23.00
2023-05-25T09:08:30.543Z,22.93
2023-05-25T09:09:30.572Z,22.89
2023-05-25T09:10:30.605Z,22.87
2023-05-25T09:11:38.888Z,22.86
2023-05-25T09:12:31.611Z,22.84
2023-05-25T09:13:30.598Z,22.84
2023-05-25T09:14:30.584Z,22.86
2023-05-25T09:15:30.563Z,22.87
2023-05-25T09:16:30.618Z,22.89
2023-05-25T09:17:30.630Z,22.91
2023-05-25T09:18:30.614Z,22.93
2023-05-25T09:19:30.584Z,22.95
2023-05-25T09:20:30.614Z,22.96
2023-05-25T09:21:30.560Z,22.94
2023-05-25T09:22:30.601Z,22.94
2023-05-25T09:23:30.627Z,22.93
2023-05-25T09:24:30.685Z,22.91
2023-05-25T09:25:30.775Z,22.91
2023-05-25T09:26:30.810Z,22.93
2023-05-25T09:27:30.830Z,22.94
2023-05-25T09:28:30.904Z,22.95
2023-05-25T09:29:30.957Z,22.96
2023-05-25T09:30:31.028Z,22.97
2023-05-25T09:31:31.131Z,22.99
2023-05-25T09:32:31.171Z,23.00
2023-05-25T09:33:31.161Z,23.01
2023-05-25T09:34:31.237Z,23.01
2023-05-25T09:35:31.265Z,23.01
2023-05-25T09:36:31.383Z,23.01
2023-05-25T09:37:31.503Z,23.02
2023-05-25T09:38:31.636Z,23.04
2023-05-25T09:39:31.602Z,23.05
2023-05-25T09:40:31.479Z,23.06
2023-05-25T09:41:31.536Z,23.08
2023-05-25T09:42:31.595Z,23.06
2023-05-25T09:43:41.903Z,23.01
2023-05-25T09:44:32.581Z,22.98
2023-05-25T09:45:31.597Z,22.95
2023-05-25T09:46:31.618Z,22.90
2023-05-25T09:47:31.575Z,22.86
2023-05-25T09:48:31.572Z,22.84
2023-05-25T09:49:31.595Z,22.83
2023-05-25T09:50:31.572Z,22.83
2023-05-25T09:51:31.561Z,22.82
2023-05-25T09:52:31.550Z,22.80
2023-05-25T09:53:31.557Z,22.79
2023-05-25T09:54:31.536Z,22.78
2023-05-25T09:55:43.995Z,22.79
2023-05-25T09:56:32.520Z,22.78
2023-05-25T09:57:31.498Z,22.77
2023-05-25T09:58:31.517Z,22.76
2023-05-25T09:59:31.520Z,22.76
2023-05-25T10:00:31.498Z,22.76
2023-05-25T10:01:31.535Z,22.77
2023-05-25T10:02:31.534Z,22.77
2023-05-25T10:03:31.462Z,22.79
2023-05-25T10:04:31.545Z,22.81
2023-05-25T10:05:31.436Z,22.82
2023-05-25T10:06:31.420Z,22.83
2023-05-25T10:07:31.411Z,22.84
2023-05-25T10:08:31.433Z,22.85
2023-05-25T10:09:31.469Z,22.83
2023-05-25T10:10:31.477Z,22.81
2023-05-25T10:11:31.503Z,22.81
2023-05-25T10:12:31.505Z,22.81
2023-05-25T10:13:31.536Z,22.82
2023-05-25T10:14:31.592Z,22.82
2023-05-25T10:15:31.602Z,22.83
2023-05-25T10:16:31.702Z,22.85
2023-05-25T10:17:31.774Z,22.84
2023-05-25T10:18:31.684Z,22.85
2023-05-25T10:19:31.708Z,22.86
2023-05-25T10:20:32.877Z,22.87
2023-05-25T10:21:31.737Z,22.87
2023-05-25T10:22:31.774Z,22.88
2023-05-25T10:23:31.757Z,22.89
2023-05-25T10:24:31.733Z,22.90
2023-05-25T10:25:31.744Z,22.91
2023-05-25T10:26:31.736Z,22.92
2023-05-25T10:27:31.721Z,22.91
2023-05-25T10:28:31.707Z,22.89
2023-05-25T10:29:31.791Z,22.87
2023-05-25T10:30:31.798Z,22.87
2023-05-25T10:31:31.985Z,22.86
2023-05-25T10:32:31.739Z,22.85
2023-05-25T10:34:31.681Z,22.87
2023-05-25T10:35:35.546Z,22.87
2023-05-25T10:36:32.684Z,22.87
2023-05-25T10:37:31.649Z,22.88
2023-05-25T10:38:31.628Z,22.89
2023-05-25T10:39:31.643Z,22.89
2023-05-25T10:40:31.615Z,22.90
2023-05-25T10:41:31.645Z,22.90
2023-05-25T10:42:31.608Z,22.91
2023-05-25T10:43:31.681Z,22.91
2023-05-25T10:44:31.605Z,22.89
2023-05-25T10:45:31.596Z,22.91
2023-05-25T10:46:31.684Z,22.92
2023-05-25T10:47:31.759Z,22.93
2023-05-25T10:48:31.781Z,22.93
2023-05-25T10:49:31.884Z,22.95
2023-05-25T10:50:31.863Z,22.95
2023-05-25T10:51:31.920Z,22.96
2023-05-25T10:52:31.989Z,22.94
2023-05-25T10:53:32.040Z,22.93
2023-05-25T10:54:32.087Z,22.94
2023-05-25T10:55:32.151Z,22.95
2023-05-25T10:56:32.226Z,22.95
2023-05-25T10:57:32.257Z,22.96
2023-05-25T10:58:32.306Z,22.97
2023-05-25T10:59:32.358Z,22.99
2023-05-25T11:00:32.468Z,23.00
2023-05-25T11:01:32.507Z,23.01
2023-05-25T11:02:32.591Z,23.02
2023-05-25T11:03:32.536Z,23.03
2023-05-25T11:04:32.629Z,23.03
2023-05-25T11:05:32.620Z,23.04
2023-05-25T11:06:32.623Z,23.05
2023-05-25T11:07:32.670Z,23.04
2023-05-25T11:08:32.736Z,23.05
2023-05-25T11:09:32.779Z,23.05
2023-05-25T11:10:32.833Z,23.05
2023-05-25T11:11:32.872Z,23.04
2023-05-25T11:12:32.929Z,23.05
2023-05-25T11:13:33.610Z,23.04
2023-05-25T11:14:33.049Z,23.04
2023-05-25T11:15:33.087Z,23.04
2023-05-25T11:16:33.153Z,23.04
2023-05-25T11:17:33.201Z,23.04
2023-05-25T11:18:33.228Z,23.04
2023-05-25T11:19:33.233Z,23.04
2023-05-25T11:20:33.379Z,23.04
2023-05-25T11:21:33.339Z,23.04
2023-05-25T11:22:33.389Z,23.02
2023-05-25T11:23:33.437Z,23.03
2023-05-25T11:24:33.533Z,23.05
2023-05-25T11:25:34.766Z,23.05
2023-05-25T11:26:33.601Z,23.06
2023-05-25T11:27:33.637Z,23.07
2023-05-25T11:28:33.673Z,23.08
2023-05-25T11:29:33.765Z,23.08
2023-05-25T11:30:33.813Z,23.09
2023-05-25T11:31:39.115Z,23.10
2023-05-25T11:32:35.037Z,23.12
2023-05-25T11:33:33.802Z,23.12
2023-05-25T11:34:33.782Z,23.14
2023-05-25T11:35:33.858Z,23.17
2023-05-25T11:36:33.796Z,23.17
2023-05-25T11:37:33.793Z,23.18
2023-05-25T11:38:33.858Z,23.19
2023-05-25T11:39:33.755Z,23.19
2023-05-25T11:40:33.744Z,23.20
2023-05-25T11:41:33.767Z,23.20
2023-05-25T11:42:33.748Z,23.23
2023-05-25T11:43:33.719Z,23.23
2023-05-25T11:44:33.823Z,23.26
2023-05-25T11:45:33.785Z,23.26
2023-05-25T11:46:33.858Z,23.27
2023-05-25T11:47:35.815Z,23.27
2023-05-25T11:48:33.816Z,23.27
2023-05-25T11:49:33.815Z,23.28
2023-05-25T11:50:33.821Z,23.29
2023-05-25T11:51:33.806Z,23.30
2023-05-25T11:52:33.803Z,23.30
2023-05-25T11:53:34.474Z,23.32
2023-05-25T11:54:33.806Z,23.32
2023-05-25T11:55:33.767Z,23.33
2023-05-25T11:56:35.997Z,23.34
2023-05-25T11:57:33.796Z,23.34
2023-05-25T11:58:33.789Z,23.34
2023-05-25T11:59:33.834Z,23.35
2023-05-25T12:00:33.847Z,23.35
2023-05-25T12:01:33.894Z,23.36
2023-05-25T12:02:33.919Z,23.37
2023-05-25T12:03:34.056Z,23.36
2023-05-25T12:04:33.945Z,23.38
2023-05-25T12:05:33.996Z,23.38
2023-05-25T12:06:33.928Z,23.39
2023-05-25T12:07:33.922Z,23.39
2023-05-25T12:08:33.936Z,23.40
2023-05-25T12:09:33.993Z,23.40
2023-05-25T12:10:33.971Z,23.41
2023-05-25T12:11:34.016Z,23.42
2023-05-25T12:12:33.992Z,23.42
2023-05-25T12:13:34.022Z,23.43
2023-05-25T12:14:34.015Z,23.44
2023-05-25T12:15:34.025Z,23.43
2023-05-25T12:16:34.108Z,23.45
2023-05-25T12:17:34.089Z,23.45
2023-05-25T12:18:34.046Z,23.46
2023-05-25T12:19:34.080Z,23.46
2023-05-25T12:20:34.165Z,23.47
2023-05-25T12:21:34.098Z,23.47
2023-05-25T12:22:34.107Z,23.47
2023-05-25T12:23:34.129Z,23.48
2023-05-25T12:24:34.129Z,23.51
2023-05-25T12:25:46.571Z,23.53
2023-05-25T12:26:35.150Z,23.54
2023-05-25T12:27:34.107Z,23.57
2023-05-25T12:28:34.075Z,23.58
2023-05-25T12:29:34.102Z,23.60
2023-05-25T12:30:34.104Z,23.61
2023-05-25T12:31:34.103Z,23.64
2023-05-25T12:32:34.112Z,23.67
2023-05-25T12:33:34.088Z,23.69
2023-05-25T12:34:34.102Z,23.73
2023-05-25T12:35:34.054Z,23.75
2023-05-25T12:36:34.058Z,23.77
2023-05-25T12:37:34.150Z,23.79
2023-05-25T12:38:34.037Z,23.81
2023-05-25T12:39:34.072Z,23.82
2023-05-25T12:40:34.078Z,23.84
2023-05-25T12:41:34.100Z,23.86
2023-05-25T12:42:34.163Z,23.87
2023-05-25T12:43:34.186Z,23.89
2023-05-25T12:44:34.280Z,23.90
2023-05-25T12:45:34.318Z,23.91
2023-05-25T12:46:34.454Z,23.94
2023-05-25T12:47:34.464Z,23.96
2023-05-25T12:48:34.469Z,23.97
2023-05-25T12:49:34.566Z,23.99
2023-05-25T12:50:34.587Z,24.00
2023-05-25T12:51:34.609Z,24.02
2023-05-25T12:52:34.717Z,24.02
2023-05-25T12:53:34.708Z,24.04